createdAt,value
2022-10-19T00:02:21.847Z,102152.31
2022-10-19T00:04:45.673Z,102149.13
2022-10-19T00:07:09.255Z,102154.31
2022-10-19T00:09:34.206Z,102153.00
2022-10-19T00:11:57.707Z,102159.00
2022-10-19T00:14:23.870Z,102159.84
2022-10-19T00:16:49.096Z,102149.06
2022-10-19T00:19:18.343Z,102148.22
2022-10-19T00:21:42.262Z,102156.13
2022-10-19T00:24:06.827Z,102157.56
2022-10-19T00:26:31.755Z,102164.63
2022-10-19T00:28:55.838Z,102158.31
2022-10-19T00:31:19.794Z,102159.00
2022-10-19T00:33:46.403Z,102161.69
2022-10-19T00:36:17.684Z,102163.31
2022-10-19T00:38:43.462Z,102163.19
2022-10-19T00:41:07.214Z,102170.69
2022-10-19T00:43:33.275Z,102169.00
2022-10-19T00:45:56.780Z,102178.47
2022-10-19T00:48:25.809Z,102169.28
2022-10-19T00:50:51.716Z,102163.56
2022-10-19T00:53:15.999Z,102168.03
2022-10-19T00:55:40.919Z,102176.13
2022-10-19T00:58:04.723Z,102169.66
2022-10-19T01:00:29.916Z,102170.50
2022-10-19T01:02:53.527Z,102165.09
2022-10-19T01:05:18.897Z,102160.56
2022-10-19T01:07:42.991Z,102151.69
2022-10-19T01:10:07.928Z,102152.34
2022-10-19T01:13:09.047Z,102150.97
2022-10-19T01:15:42.881Z,102148.19
2022-10-19T01:18:15.715Z,102148.34
2022-10-19T01:21:10.351Z,102138.16
2022-10-19T01:24:23.583Z,102128.41
2022-10-19T01:27:17.375Z,102135.94
2022-10-19T01:30:05.051Z,102140.25
2022-10-19T01:32:43.815Z,102140.97
2022-10-19T01:35:12.960Z,102142.06
2022-10-19T01:37:45.452Z,102134.88
2022-10-19T01:40:13.980Z,102135.13
2022-10-19T01:42:46.182Z,102137.25
2022-10-19T01:45:19.014Z,102142.59
2022-10-19T01:47:51.605Z,102134.69
2022-10-19T01:50:20.498Z,102141.88
2022-10-19T01:52:45.324Z,102141.56
2022-10-19T01:55:11.848Z,102142.31
2022-10-19T01:57:41.052Z,102143.78
2022-10-19T02:00:11.366Z,102133.78
2022-10-19T02:02:42.290Z,102132.00
2022-10-19T02:05:09.219Z,102131.56
2022-10-19T02:07:34.164Z,102132.03
2022-10-19T02:09:58.266Z,102137.50
2022-10-19T02:12:22.921Z,102130.78
2022-10-19T02:14:52.214Z,102131.69
2022-10-19T02:17:22.413Z,102124.09
2022-10-19T02:19:46.224Z,102131.03
2022-10-19T02:22:10.427Z,102129.00
2022-10-19T02:24:34.083Z,102136.28
2022-10-19T02:26:58.231Z,102130.25
2022-10-19T02:29:22.171Z,102125.88
2022-10-19T02:31:46.339Z,102132.59
2022-10-19T02:34:12.172Z,102128.03
2022-10-19T02:36:35.843Z,102133.56
2022-10-19T02:38:59.526Z,102133.78
2022-10-19T02:41:28.432Z,102131.63
2022-10-19T02:43:57.536Z,102131.38
2022-10-19T02:46:27.128Z,102131.09
2022-10-19T02:48:52.392Z,102135.75
2022-10-19T02:51:38.074Z,102134.22
2022-10-19T02:54:04.952Z,102123.66
2022-10-19T02:56:29.235Z,102143.63
2022-10-19T02:58:52.836Z,102134.53
2022-10-19T03:01:20.773Z,102137.44
2022-10-19T03:03:44.382Z,102133.66
2022-10-19T03:06:07.983Z,102131.81
2022-10-19T03:08:32.959Z,102129.00
2022-10-19T03:10:59.751Z,102133.44
2022-10-19T03:13:23.354Z,102127.06
2022-10-19T03:15:47.522Z,102136.47
2022-10-19T03:18:11.115Z,102133.78
2022-10-19T03:20:34.638Z,102148.47
2022-10-19T03:22:58.196Z,102146.44
2022-10-19T03:25:23.141Z,102144.91
2022-10-19T03:27:48.139Z,102143.91
2022-10-19T03:30:12.577Z,102146.47
2022-10-19T03:32:36.200Z,102150.91
2022-10-19T03:34:59.720Z,102148.28
2022-10-19T03:37:23.336Z,102143.97
2022-10-19T03:39:46.838Z,102141.75
2022-10-19T03:42:11.879Z,102149.97
2022-10-19T03:44:35.468Z,102160.00
2022-10-19T03:46:59.082Z,102158.94
2022-10-19T03:49:23.187Z,102158.03
2022-10-19T03:51:46.842Z,102157.03
2022-10-19T03:54:15.880Z,102160.56
2022-10-19T03:56:39.517Z,102156.00
2022-10-19T03:59:06.410Z,102162.44
2022-10-19T04:01:33.865Z,102167.03
2022-10-19T04:03:59.300Z,102168.09
2022-10-19T04:06:30.236Z,102167.63
2022-10-19T04:08:54.212Z,102162.59
2022-10-19T04:11:24.877Z,102163.25
2022-10-19T04:13:50.609Z,102167.22
2022-10-19T04:16:15.703Z,102174.09
2022-10-19T04:18:39.264Z,102175.66
2022-10-19T04:21:05.082Z,102183.63
2022-10-19T04:23:30.655Z,102189.69
2022-10-19T04:25:54.207Z,102189.13
2022-10-19T04:28:17.735Z,102191.72
2022-10-19T04:30:41.238Z,102195.06
2022-10-19T04:33:06.222Z,102189.66
2022-10-19T04:35:29.736Z,102196.56
2022-10-19T04:37:53.349Z,102197.25
2022-10-19T04:40:17.026Z,102199.38
2022-10-19T04:42:40.597Z,102195.56
2022-10-19T04:45:04.445Z,102201.13
2022-10-19T04:47:27.999Z,102209.38
2022-10-19T04:49:52.887Z,102202.47
2022-10-19T04:52:16.506Z,102206.25
2022-10-19T04:54:40.020Z,102213.50
2022-10-19T04:57:03.553Z,102216.09
2022-10-19T04:59:27.198Z,102201.75
2022-10-19T05:01:50.766Z,102213.78
2022-10-19T05:04:14.259Z,102219.66
2022-10-19T05:06:39.491Z,102217.13
2022-10-19T05:09:03.060Z,102212.41
2022-10-19T05:11:27.243Z,102226.72
2022-10-19T05:13:51.127Z,102220.97
2022-10-19T05:16:17.941Z,102216.75
2022-10-19T05:18:42.286Z,102219.31
2022-10-19T05:21:08.915Z,102215.03
2022-10-19T05:23:33.948Z,102215.50
2022-10-19T05:26:05.386Z,102212.31
2022-10-19T05:28:29.102Z,102213.38
2022-10-19T05:30:52.675Z,102215.31
2022-10-19T05:33:16.226Z,102220.19
2022-10-19T05:35:39.763Z,102219.66
2022-10-19T05:38:03.385Z,102219.28
2022-10-19T05:40:28.699Z,102226.38
2022-10-19T05:42:52.432Z,102227.06
2022-10-19T05:45:16.211Z,102220.44
2022-10-19T05:47:39.900Z,102220.63
2022-10-19T05:50:03.519Z,102228.44
2022-10-19T05:52:27.128Z,102233.81
2022-10-19T05:54:50.701Z,102232.66
2022-10-19T05:57:15.723Z,102236.19
2022-10-19T05:59:39.242Z,102233.59
2022-10-19T06:02:02.927Z,102229.84
2022-10-19T06:04:26.833Z,102231.47
2022-10-19T06:06:50.425Z,102231.41
2022-10-19T06:09:14.272Z,102238.41
2022-10-19T06:11:41.544Z,102236.19
2022-10-19T06:14:09.700Z,102241.28
2022-10-19T06:16:34.442Z,102244.38
2022-10-19T06:18:58.683Z,102234.84
2022-10-19T06:21:26.734Z,102244.19
2022-10-19T06:23:52.359Z,102249.66
2022-10-19T06:26:16.391Z,102242.44
2022-10-19T06:28:42.193Z,102244.84
2022-10-19T06:31:09.188Z,102254.66
2022-10-19T06:33:33.176Z,102248.09
2022-10-19T06:35:56.874Z,102246.72
2022-10-19T06:38:20.397Z,102244.81
2022-10-19T06:40:43.962Z,102254.03
2022-10-19T06:43:07.538Z,102253.66
2022-10-19T06:45:35.752Z,102244.63
2022-10-19T06:48:04.995Z,102251.72
2022-10-19T06:50:31.912Z,102251.16
2022-10-19T06:52:55.464Z,102260.50
2022-10-19T06:55:19.166Z,102261.44
2022-10-19T06:57:42.667Z,102259.31
2022-10-19T07:00:08.272Z,102254.91
2022-10-19T07:02:31.844Z,102261.97
2022-10-19T07:04:56.790Z,102262.81
2022-10-19T07:07:20.297Z,102267.25
2022-10-19T07:09:43.886Z,102263.03
2022-10-19T07:12:08.496Z,102271.84
2022-10-19T07:14:38.620Z,102270.75
2022-10-19T07:17:02.251Z,102283.44
2022-10-19T07:19:27.947Z,102286.06
2022-10-19T07:21:54.088Z,102289.91
2022-10-19T07:24:17.631Z,102286.47
2022-10-19T07:26:41.364Z,102296.19
2022-10-19T07:29:05.296Z,102290.31
2022-10-19T07:31:30.209Z,102294.03
2022-10-19T07:33:55.017Z,102298.63
2022-10-19T07:36:18.570Z,102296.59
2022-10-19T07:38:43.538Z,102302.00
2022-10-19T07:41:09.572Z,102299.13
2022-10-19T07:43:33.173Z,102303.72
2022-10-19T07:46:00.435Z,102306.00
2022-10-19T07:48:23.933Z,102306.44
2022-10-19T07:50:50.036Z,102313.53
2022-10-19T07:53:13.555Z,102311.47
2022-10-19T07:55:38.556Z,102311.44
2022-10-19T07:58:02.138Z,102321.34
2022-10-19T08:00:25.920Z,102308.06
2022-10-19T08:03:05.123Z,102319.72
2022-10-19T08:05:34.528Z,102314.69
2022-10-19T08:07:58.084Z,102315.75
2022-10-19T08:10:21.720Z,102312.94
2022-10-19T08:12:46.829Z,102320.38
2022-10-19T08:15:11.263Z,102317.75
2022-10-19T08:17:37.711Z,102319.03
2022-10-19T08:20:01.296Z,102324.31
2022-10-19T08:22:24.828Z,102324.22
2022-10-19T08:24:48.407Z,102330.25
2022-10-19T08:27:11.971Z,102325.94
2022-10-19T08:29:36.891Z,102323.06
2022-10-19T08:32:01.146Z,102326.59
2022-10-19T08:34:25.331Z,102332.97
2022-10-19T08:36:48.899Z,102329.75
2022-10-19T08:39:13.978Z,102333.53
2022-10-19T08:41:53.821Z,102337.19
2022-10-19T08:44:43.349Z,102330.28
2022-10-19T08:47:22.325Z,102328.22
2022-10-19T08:49:47.755Z,102340.22
2022-10-19T08:52:16.750Z,102332.78
2022-10-19T08:57:26.768Z,102327.91
2022-10-19T08:59:58.747Z,102336.63
2022-10-19T09:02:37.672Z,102326.81
2022-10-19T09:05:08.879Z,102333.03
2022-10-19T09:07:37.533Z,102334.78
2022-10-19T09:10:06.607Z,102340.84
2022-10-19T09:12:42.807Z,102347.97
2022-10-19T09:15:13.482Z,102341.34
2022-10-19T09:17:37.125Z,102342.41
2022-10-19T09:20:16.440Z,102348.88
2022-10-19T09:22:40.323Z,102343.69
2022-10-19T09:25:11.811Z,102348.31
2022-10-19T09:27:39.697Z,102348.31
2022-10-19T09:30:10.926Z,102364.47
2022-10-19T09:32:37.885Z,102363.13
2022-10-19T09:35:04.852Z,102361.97
2022-10-19T09:39:57.926Z,102361.69
2022-10-19T09:42:26.306Z,102363.00
2022-10-19T09:44:51.224Z,102365.25
2022-10-19T09:47:38.170Z,102370.19
2022-10-19T09:50:20.258Z,102373.16
2022-10-19T09:52:45.712Z,102369.22
2022-10-19T09:55:26.336Z,102370.78
2022-10-19T09:57:52.162Z,102376.47
2022-10-19T10:00:20.306Z,102378.25
2022-10-19T10:02:51.391Z,102369.22
2022-10-19T10:05:16.706Z,102372.47
2022-10-19T10:07:41.086Z,102377.13
2022-10-19T10:10:12.337Z,102374.59
2022-10-19T10:12:37.024Z,102373.00
2022-10-19T10:15:00.923Z,102372.09
2022-10-19T10:17:30.459Z,102364.34
2022-10-19T10:20:19.578Z,102368.66
2022-10-19T10:22:57.410Z,102368.38
2022-10-19T10:25:22.827Z,102378.50
2022-10-19T10:27:59.156Z,102381.72
2022-10-19T10:30:22.758Z,102371.78
2022-10-19T10:32:51.683Z,102385.59
2022-10-19T10:35:22.796Z,102373.16
2022-10-19T10:37:48.523Z,102374.38
2022-10-19T10:40:24.599Z,102372.50
2022-10-19T10:42:50.538Z,102366.81
2022-10-19T10:45:21.827Z,102371.94
2022-10-19T10:47:48.347Z,102372.56
2022-10-19T10:50:23.144Z,102373.16
2022-10-19T10:53:02.066Z,102373.91
2022-10-19T10:55:26.604Z,102373.41
2022-10-19T10:57:55.952Z,102376.69
2022-10-19T11:00:22.086Z,102372.47
2022-10-19T11:02:50.851Z,102368.94
2022-10-19T11:05:23.020Z,102365.78
2022-10-19T11:07:49.763Z,102358.28
2022-10-19T11:10:31.631Z,102365.28
2022-10-19T11:13:05.994Z,102372.94
2022-10-19T11:15:36.316Z,102374.81
2022-10-19T11:18:13.108Z,102366.16
2022-10-19T11:20:44.541Z,102366.38
2022-10-19T11:23:16.347Z,102369.22
2022-10-19T11:25:54.643Z,102370.50
2022-10-19T11:28:36.047Z,102366.94
2022-10-19T11:31:16.615Z,102372.31
2022-10-19T11:33:55.087Z,102357.78
2022-10-19T11:36:42.823Z,102362.97
2022-10-19T11:39:23.032Z,102361.50
2022-10-19T11:41:59.470Z,102351.72
2022-10-19T11:44:40.238Z,102355.22
2022-10-19T11:47:29.149Z,102354.84
2022-10-19T11:50:03.271Z,102341.38
2022-10-19T11:52:38.816Z,102350.53
2022-10-19T11:55:14.418Z,102342.59
2022-10-19T11:57:48.282Z,102342.38
2022-10-19T12:00:37.580Z,102334.06
2022-10-19T12:03:50.195Z,102332.03
2022-10-19T12:06:21.218Z,102332.50
2022-10-19T12:09:06.450Z,102331.28
2022-10-19T12:11:56.819Z,102343.16
2022-10-19T12:14:25.875Z,102326.84
2022-10-19T12:16:54.520Z,102339.44
2022-10-19T12:19:22.979Z,102336.69
2022-10-19T12:21:47.915Z,102338.69
2022-10-19T12:24:19.115Z,102342.38
2022-10-19T12:26:43.112Z,102341.03
2022-10-19T12:29:14.484Z,102333.13
2022-10-19T12:31:38.430Z,102338.69
2022-10-19T12:34:11.000Z,102336.81
2022-10-19T12:36:42.691Z,102331.84
2022-10-19T12:39:18.511Z,102331.78
2022-10-19T12:41:52.269Z,102333.72
2022-10-19T12:44:47.894Z,102324.03
2022-10-19T12:47:18.223Z,102321.03
2022-10-19T12:49:52.523Z,102322.44
2022-10-19T12:52:19.263Z,102317.22
2022-10-19T12:54:45.469Z,102312.91
2022-10-19T12:57:27.766Z,102315.50
2022-10-19T13:00:06.034Z,102320.97
2022-10-19T13:05:02.503Z,102320.81
2022-10-19T13:07:28.418Z,102318.00
2022-10-19T13:10:01.982Z,102318.25
2022-10-19T13:12:41.058Z,102317.28
2022-10-19T13:15:06.808Z,102309.00
2022-10-19T13:17:49.019Z,102305.16
2022-10-19T13:20:52.935Z,102311.34
2022-10-19T13:23:42.880Z,102310.63
2022-10-19T13:26:34.710Z,102309.34
2022-10-19T13:28:58.488Z,102299.88
2022-10-19T13:31:28.523Z,102301.72
2022-10-19T13:33:55.016Z,102302.59
2022-10-19T13:36:19.927Z,102297.88
2022-10-19T13:38:46.314Z,102295.19
2022-10-19T13:41:30.007Z,102285.81
2022-10-19T13:44:05.063Z,102288.66
2022-10-19T13:46:47.831Z,102284.28
2022-10-19T13:49:44.579Z,102292.88
2022-10-19T13:52:53.853Z,102291.00
2022-10-19T13:56:03.566Z,102283.72
2022-10-19T13:59:22.539Z,102292.53
2022-10-19T14:02:17.037Z,102289.16
2022-10-19T14:04:49.675Z,102287.88
2022-10-19T14:07:17.853Z,102291.50
2022-10-19T14:10:09.244Z,102281.56
2022-10-19T14:12:36.819Z,102283.31
2022-10-19T14:15:01.793Z,102276.94
2022-10-19T14:17:30.146Z,102279.28
2022-10-19T14:19:57.162Z,102275.25
2022-10-19T14:22:26.474Z,102272.78
2022-10-19T14:24:50.314Z,102269.31
2022-10-19T14:27:22.487Z,102279.16
2022-10-19T14:29:48.581Z,102272.75
2022-10-19T14:32:14.138Z,102270.13
2022-10-19T14:34:42.302Z,102275.13
2022-10-19T14:37:05.903Z,102278.56
2022-10-19T14:39:33.731Z,102274.84
2022-10-19T14:41:59.405Z,102274.00
2022-10-19T14:44:40.909Z,102267.81
2022-10-19T14:47:23.175Z,102267.22
2022-10-19T14:49:47.118Z,102271.28
2022-10-19T14:52:13.333Z,102261.19
2022-10-19T14:54:40.893Z,102264.19
2022-10-19T14:57:08.958Z,102263.34
2022-10-19T14:59:37.379Z,102265.00
2022-10-19T15:02:05.444Z,102266.84
2022-10-19T15:04:34.463Z,102266.84
2022-10-19T15:06:59.487Z,102263.16
2022-10-19T15:09:37.802Z,102260.72
2022-10-19T15:12:17.110Z,102263.81
2022-10-19T15:14:40.851Z,102260.81
2022-10-19T15:17:06.922Z,102265.06
2022-10-19T15:19:35.160Z,102263.06
2022-10-19T15:22:17.617Z,102260.72
2022-10-19T15:24:42.743Z,102260.91
2022-10-19T15:27:21.855Z,102269.13
2022-10-19T15:29:56.298Z,102268.09
2022-10-19T15:32:24.734Z,102263.38
2022-10-19T15:34:49.694Z,102270.88
2022-10-19T15:37:21.850Z,102263.50
2022-10-19T15:39:45.879Z,102272.56
2022-10-19T15:42:36.264Z,102264.50
2022-10-19T15:45:00.203Z,102268.94
2022-10-19T15:47:25.544Z,102274.47
2022-10-19T15:50:32.573Z,102274.81
2022-10-19T15:52:57.502Z,102275.59
2022-10-19T15:55:21.027Z,102281.00
2022-10-19T15:57:44.642Z,102278.00
2022-10-19T16:00:15.162Z,102275.09
2022-10-19T16:02:39.085Z,102274.97
2022-10-19T16:05:02.788Z,102280.38
2022-10-19T16:07:29.887Z,102286.41
2022-10-19T16:09:55.495Z,102278.41
2022-10-19T16:12:19.415Z,102274.31
2022-10-19T16:14:43.287Z,102281.41
2022-10-19T16:17:06.960Z,102288.28
2022-10-19T16:19:30.549Z,102292.56
2022-10-19T16:21:54.347Z,102295.28
2022-10-19T16:24:17.852Z,102293.41
2022-10-19T16:26:42.831Z,102301.88
2022-10-19T16:29:06.437Z,102302.28
2022-10-19T16:31:31.462Z,102293.84
2022-10-19T16:33:55.018Z,102300.88
2022-10-19T16:36:20.270Z,102305.22
2022-10-19T16:38:43.806Z,102306.81
2022-10-19T16:41:10.128Z,102309.28
2022-10-19T16:43:35.358Z,102308.81
2022-10-19T16:45:59.375Z,102306.69
2022-10-19T16:48:23.997Z,102313.72
2022-10-19T16:51:16.750Z,102313.41
2022-10-19T16:53:40.598Z,102317.53
2022-10-19T16:56:06.750Z,102329.34
2022-10-19T16:58:30.396Z,102316.63
2022-10-19T17:00:56.293Z,102322.28
2022-10-19T17:03:19.845Z,102322.63
2022-10-19T17:05:43.545Z,102321.44
2022-10-19T17:08:08.336Z,102319.38
2022-10-19T17:10:31.919Z,102325.13
2022-10-19T17:12:55.459Z,102333.72
2022-10-19T17:18:05.853Z,102334.44
2022-10-19T17:20:29.452Z,102335.72
2022-10-19T17:22:53.635Z,102335.22
2022-10-19T17:25:17.259Z,102343.38
2022-10-19T17:27:41.014Z,102343.78
2022-10-19T17:30:05.148Z,102348.75
2022-10-19T17:32:28.791Z,102349.94
2022-10-19T17:34:55.249Z,102348.31
2022-10-19T17:37:18.831Z,102350.44
2022-10-19T17:39:42.395Z,102347.06
2022-10-19T17:42:05.969Z,102348.97
2022-10-19T17:44:30.664Z,102346.94
2022-10-19T17:46:54.494Z,102349.19
2022-10-19T17:49:18.816Z,102346.59
2022-10-19T17:51:44.587Z,102343.19
2022-10-19T17:54:11.896Z,102346.22
2022-10-19T17:56:37.411Z,102347.41
2022-10-19T17:59:02.987Z,102345.56
2022-10-19T18:01:28.133Z,102349.53
2022-10-19T18:03:52.322Z,102347.03
2022-10-19T18:06:18.213Z,102346.56
2022-10-19T18:08:46.112Z,102354.84
2022-10-19T18:11:13.519Z,102355.09
2022-10-19T18:16:09.235Z,102359.03
2022-10-19T18:18:35.929Z,102357.72
2022-10-19T18:20:59.941Z,102358.06
2022-10-19T18:23:23.579Z,102353.81
2022-10-19T18:25:54.209Z,102354.88
2022-10-19T18:28:18.562Z,102361.84
2022-10-19T18:30:45.166Z,102362.63
2022-10-19T18:33:08.988Z,102362.75
2022-10-19T18:35:36.898Z,102363.16
2022-10-19T18:38:00.569Z,102358.97
2022-10-19T18:40:24.482Z,102361.72
2022-10-19T18:42:49.466Z,102363.81
2022-10-19T18:45:13.123Z,102363.81
2022-10-19T18:47:36.924Z,102369.19
2022-10-19T18:50:00.447Z,102366.81
2022-10-19T18:52:24.064Z,102366.41
2022-10-19T18:54:47.729Z,102367.16
2022-10-19T18:57:11.299Z,102369.28
2022-10-19T18:59:36.330Z,102365.00
2022-10-19T19:01:59.967Z,102357.91
2022-10-19T19:04:23.510Z,102361.91
2022-10-19T19:06:47.091Z,102359.31
2022-10-19T19:09:12.922Z,102354.25
2022-10-19T19:11:38.536Z,102355.19
2022-10-19T19:14:06.196Z,102356.25
2022-10-19T19:16:36.291Z,102359.09
2022-10-19T19:18:59.912Z,102354.97
2022-10-19T19:21:26.822Z,102349.00
2022-10-19T19:23:51.851Z,102358.88
2022-10-19T19:26:16.615Z,102353.56
2022-10-19T19:28:41.917Z,102357.16
2022-10-19T19:31:07.470Z,102360.34
2022-10-19T19:33:32.466Z,102365.84
2022-10-19T19:35:56.023Z,102367.00
2022-10-19T19:38:19.947Z,102362.38
2022-10-19T19:40:45.486Z,102357.22
2022-10-19T19:43:09.192Z,102355.56
2022-10-19T19:45:32.762Z,102353.28
2022-10-19T19:47:56.327Z,102350.81
2022-10-19T19:50:21.280Z,102350.81
2022-10-19T19:52:44.846Z,102345.47
2022-10-19T19:55:09.297Z,102347.28
2022-10-19T19:57:33.104Z,102344.16
2022-10-19T19:59:56.842Z,102352.22
2022-10-19T20:02:21.169Z,102347.84
2022-10-19T20:04:44.755Z,102357.03
2022-10-19T20:07:09.695Z,102363.28
2022-10-19T20:09:33.483Z,102359.94
2022-10-19T20:11:57.080Z,102368.28
2022-10-19T20:14:21.502Z,102359.34
2022-10-19T20:16:45.089Z,102355.84
2022-10-19T20:19:10.953Z,102358.13
2022-10-19T20:21:34.761Z,102361.34
2022-10-19T20:23:59.687Z,102365.88
2022-10-19T20:26:25.355Z,102375.91
2022-10-19T20:28:49.479Z,102373.44
2022-10-19T20:31:14.047Z,102378.16
2022-10-19T20:33:39.744Z,102366.66
2022-10-19T20:36:06.519Z,102371.22
2022-10-19T20:38:30.066Z,102369.59
2022-10-19T20:40:54.991Z,102374.00
2022-10-19T20:43:18.537Z,102374.06
2022-10-19T20:45:42.206Z,102380.41
2022-10-19T20:48:06.032Z,102379.59
2022-10-19T20:50:29.554Z,102380.59
2022-10-19T20:52:53.091Z,102374.38
2022-10-19T20:55:16.904Z,102379.91
2022-10-19T20:57:41.867Z,102381.03
2022-10-19T21:00:06.861Z,102386.41
2022-10-19T21:02:30.441Z,102379.50
2022-10-19T21:04:54.063Z,102382.34
2022-10-19T21:07:17.624Z,102382.16
2022-10-19T21:09:41.142Z,102383.38
2022-10-19T21:12:04.934Z,102383.38
2022-10-19T21:14:31.507Z,102382.66
2022-10-19T21:16:56.490Z,102382.75
2022-10-19T21:19:25.242Z,102378.41
2022-10-19T21:21:52.590Z,102377.72
2022-10-19T21:24:18.422Z,102376.91
2022-10-19T21:26:42.163Z,102374.41
2022-10-19T21:29:09.407Z,102367.44
2022-10-19T21:31:34.475Z,102372.09
2022-10-19T21:33:58.259Z,102379.09
2022-10-19T21:36:25.070Z,102374.81
2022-10-19T21:38:48.975Z,102368.66
2022-10-19T21:41:14.961Z,102377.00
2022-10-19T21:43:38.559Z,102369.72
2022-10-19T21:46:03.905Z,102375.34
2022-10-19T21:48:28.863Z,102366.53
2022-10-19T21:50:52.507Z,102369.50
2022-10-19T21:53:20.486Z,102365.00
2022-10-19T21:55:44.033Z,102368.81
2022-10-19T21:58:07.572Z,102368.00
2022-10-19T22:00:31.673Z,102368.00
2022-10-19T22:02:55.181Z,102361.97
2022-10-19T22:05:20.114Z,102361.91
2022-10-19T22:07:43.743Z,102361.13
2022-10-19T22:10:07.945Z,102361.97
2022-10-19T22:12:31.611Z,102354.06
2022-10-19T22:14:55.239Z,102340.03
2022-10-19T22:17:18.762Z,102343.63
2022-10-19T22:19:42.346Z,102348.19
2022-10-19T22:22:07.327Z,102335.78
2022-10-19T22:24:30.914Z,102349.28
2022-10-19T22:26:54.578Z,102342.13
2022-10-19T22:29:18.413Z,102340.38
2022-10-19T22:31:42.962Z,102331.53
2022-10-19T22:34:10.436Z,102328.19
2022-10-19T22:36:34.002Z,102328.34
2022-10-19T22:38:58.993Z,102320.41
2022-10-19T22:41:22.601Z,102327.69
2022-10-19T22:43:46.236Z,102323.25
2022-10-19T22:46:10.012Z,102328.66
2022-10-19T22:48:33.675Z,102330.34
2022-10-19T22:50:57.735Z,102318.06
2022-10-19T22:53:21.515Z,102325.16
2022-10-19T22:55:46.441Z,102321.13
2022-10-19T23:00:35.226Z,102316.78
2022-10-19T23:02:58.839Z,102315.88
2022-10-19T23:05:22.718Z,102313.19
2022-10-19T23:07:46.357Z,102309.59
2022-10-19T23:10:10.494Z,102315.88
2022-10-19T23:12:35.555Z,102312.53
2022-10-19T23:14:59.129Z,102311.56
2022-10-19T23:17:22.699Z,102306.13
2022-10-19T23:19:46.262Z,102315.28
2022-10-19T23:22:09.851Z,102313.53
2022-10-19T23:24:33.459Z,102312.59
2022-10-19T23:26:57.027Z,102311.88
2022-10-19T23:29:22.189Z,102315.53
2022-10-19T23:31:45.790Z,102314.72
2022-10-19T23:34:09.360Z,102316.50
2022-10-19T23:36:32.971Z,102316.59
2022-10-19T23:38:58.382Z,102320.09
2022-10-19T23:41:22.785Z,102324.66
2022-10-19T23:43:46.711Z,102318.31
2022-10-19T23:46:12.102Z,102323.34
2022-10-19T23:48:36.581Z,102326.88
2022-10-19T23:51:01.769Z,102322.66
2022-10-19T23:53:25.666Z,102320.00
2022-10-19T23:55:49.189Z,102322.69
2022-10-19T23:58:12.764Z,102322.69
